createdAt,value
2022-10-05T00:03:45.515Z,4.9
2022-10-05T00:10:05.643Z,4.9
2022-10-05T00:16:28.760Z,3.7
2022-10-05T00:22:48.554Z,3.7
2022-10-05T00:29:11.642Z,5.5
2022-10-05T00:35:31.588Z,5.5
2022-10-05T00:41:54.549Z,4.8
2022-10-05T00:48:14.495Z,4.8
2022-10-05T00:54:37.528Z,4.5
2022-10-05T01:00:57.682Z,4.5
2022-10-05T01:07:20.526Z,4.3
2022-10-05T01:13:40.635Z,4.3
2022-10-05T01:20:03.619Z,2.5
2022-10-05T01:26:23.675Z,2.5
2022-10-05T01:32:46.558Z,4.3
2022-10-05T01:39:06.663Z,4.3
2022-10-05T01:45:29.583Z,4.3
2022-10-05T01:51:49.622Z,4.3
2022-10-05T01:58:12.569Z,3.4
2022-10-05T02:05:00.173Z,3.4
2022-10-05T02:10:55.595Z,3.4
2022-10-05T02:17:15.526Z,3.4
2022-10-05T02:23:38.512Z,2.6
2022-10-05T02:29:58.601Z,2.6
2022-10-05T02:36:21.656Z,4.8
2022-10-05T02:42:41.618Z,4.8
2022-10-05T02:49:04.596Z,3.6
2022-10-05T02:55:24.577Z,3.6
2022-10-05T03:01:47.704Z,3.7
2022-10-05T03:24:00.405Z,5.2
2022-10-05T03:30:20.496Z,5.2
2022-10-05T03:36:43.817Z,5.3
2022-10-05T03:43:03.617Z,5.3
2022-10-05T03:49:26.560Z,6.4
2022-10-05T03:55:46.530Z,6.4
2022-10-05T04:02:09.783Z,4.3
2022-10-05T04:08:29.564Z,4.3
2022-10-05T04:14:52.533Z,6.7
2022-10-05T04:21:12.554Z,6.7
2022-10-05T04:27:35.531Z,4.3
2022-10-05T04:33:55.481Z,4.3
2022-10-05T04:40:18.591Z,4.8
2022-10-05T04:46:38.595Z,4.8
2022-10-05T04:53:01.600Z,8.6
2022-10-05T04:59:21.574Z,8.6
2022-10-05T05:05:58.884Z,4.8
2022-10-05T05:12:04.621Z,4.8
2022-10-05T05:18:27.549Z,4.3
2022-10-05T05:24:47.598Z,4.3
2022-10-05T05:31:10.663Z,4.7
2022-10-05T05:37:30.550Z,4.7
2022-10-05T05:43:53.564Z,5.5
2022-10-05T05:50:13.529Z,5.5
2022-10-05T05:56:36.566Z,3.1
2022-10-05T06:02:56.634Z,3.1
2022-10-05T06:09:19.593Z,4.6
2022-10-05T06:15:39.619Z,4.6
2022-10-05T06:22:02.568Z,4.8
2022-10-05T06:28:22.639Z,4.8
2022-10-05T06:34:45.636Z,5.8
2022-10-05T06:41:05.578Z,5.8
2022-10-05T06:47:28.662Z,5.2
2022-10-05T06:53:48.594Z,5.2
2022-10-05T07:00:11.548Z,3.8
2022-10-05T07:06:31.506Z,3.8
2022-10-05T07:12:54.588Z,3.3
2022-10-05T07:19:14.528Z,3.3
2022-10-05T07:25:37.559Z,3.4
2022-10-05T07:31:57.558Z,3.4
2022-10-05T07:38:20.646Z,5.6
2022-10-05T07:44:40.599Z,5.6
2022-10-05T07:51:03.648Z,4.7
2022-10-05T07:57:23.518Z,4.7
2022-10-05T08:03:46.557Z,3.8
2022-10-05T08:10:06.638Z,3.8
2022-10-05T08:33:12.338Z,9.4
2022-10-05T08:39:32.494Z,9.4
2022-10-05T08:45:55.540Z,8.1
2022-10-05T08:52:15.593Z,8.1
2022-10-05T08:58:38.573Z,4.4
2022-10-05T09:04:58.593Z,4.4
2022-10-05T09:11:21.603Z,5.4
2022-10-05T09:17:41.580Z,5.4
2022-10-05T09:24:04.651Z,4.1
2022-10-05T09:30:24.511Z,4.1
2022-10-05T09:36:47.634Z,3
2022-10-05T09:43:07.568Z,3
2022-10-05T09:49:30.555Z,3.5
2022-10-05T09:55:50.606Z,3.5
2022-10-05T10:02:13.642Z,2.4
2022-10-05T10:08:33.588Z,2.4
2022-10-05T10:15:00.568Z,2.8
2022-10-05T10:21:16.495Z,2.8
2022-10-05T10:27:39.606Z,1.8
2022-10-05T10:33:59.534Z,1.8
2022-10-05T10:40:22.554Z,1.4
2022-10-05T10:46:42.761Z,1.4
2022-10-05T10:53:05.839Z,2.4
2022-10-05T10:59:26.699Z,2.4
2022-10-05T11:05:48.751Z,1.5
2022-10-05T11:12:08.536Z,1.5
2022-10-05T11:18:31.512Z,1.6
2022-10-05T11:24:51.576Z,1.6
2022-10-05T11:31:14.618Z,1.1
2022-10-05T11:37:34.511Z,1.1
2022-10-05T11:43:57.557Z,0.5
2022-10-05T11:50:17.498Z,0.5
2022-10-05T11:56:40.592Z,1.2
2022-10-05T12:03:01.023Z,1.2
2022-10-05T12:09:24.886Z,0.4
2022-10-05T12:15:44.601Z,0.4
2022-10-05T12:22:07.689Z,1.3
2022-10-05T12:28:27.727Z,1.3
2022-10-05T12:34:50.509Z,0.9
2022-10-05T12:41:10.515Z,0.9
2022-10-05T12:47:33.630Z,0.9
2022-10-05T12:53:53.576Z,0.9
2022-10-05T13:00:20.400Z,0.9
2022-10-05T13:06:36.477Z,0.9
2022-10-05T13:12:59.522Z,1.5
2022-10-05T13:19:19.859Z,1.5
2022-10-05T13:25:42.539Z,1.5
2022-10-05T13:47:55.058Z,2.1
2022-10-05T13:54:14.549Z,2.1
2022-10-05T14:00:38.184Z,2.1
2022-10-05T14:06:58.595Z,2.1
2022-10-05T14:13:21.591Z,0.9
2022-10-05T14:19:41.499Z,0.9
2022-10-05T14:26:05.390Z,0.9
2022-10-05T14:32:25.554Z,0.9
2022-10-05T14:38:48.475Z,1.4
2022-10-05T14:45:08.549Z,1.4
2022-10-05T14:51:31.500Z,1.3
2022-10-05T14:57:51.509Z,1.3
2022-10-05T15:04:14.512Z,1.6
2022-10-05T15:10:34.522Z,1.6
2022-10-05T15:16:57.667Z,1.5
2022-10-05T15:23:17.831Z,1.5
2022-10-05T15:29:40.604Z,1.3
2022-10-05T15:36:00.547Z,1.3
2022-10-05T15:42:23.568Z,1.3
2022-10-05T15:48:43.725Z,1.3
2022-10-05T15:55:07.032Z,1.1
2022-10-05T16:01:26.568Z,1.1
2022-10-05T16:07:49.611Z,0.9
2022-10-05T16:14:09.615Z,0.9
2022-10-05T16:20:32.499Z,1.2
2022-10-05T16:26:52.516Z,1.2
2022-10-05T16:33:15.494Z,1
2022-10-05T16:39:35.532Z,1
2022-10-05T16:45:58.754Z,1.5
2022-10-05T16:52:18.604Z,1.5
2022-10-05T16:58:41.719Z,2.2
2022-10-05T17:05:01.646Z,2.2
2022-10-05T17:11:24.646Z,0.6
2022-10-05T17:17:44.653Z,0.6
2022-10-05T17:24:07.635Z,1.6
2022-10-05T17:30:27.607Z,1.6
2022-10-05T17:36:50.620Z,0.6
2022-10-05T17:43:10.648Z,0.6
2022-10-05T17:49:33.527Z,1
2022-10-05T17:55:53.636Z,1
2022-10-05T18:02:16.924Z,1.4
2022-10-05T18:08:37.038Z,1.4
2022-10-05T18:14:59.666Z,2.5
2022-10-05T18:21:19.488Z,2.5
2022-10-05T18:27:42.587Z,1.9
2022-10-05T18:51:06.437Z,1
2022-10-05T18:57:26.495Z,1
2022-10-05T19:03:49.595Z,0.5
2022-10-05T19:10:09.541Z,0.5
2022-10-05T19:16:32.512Z,1.7
2022-10-05T19:22:52.524Z,1.7
2022-10-05T19:29:15.495Z,0.2
2022-10-05T19:35:35.513Z,0.2
2022-10-05T19:41:58.530Z,2
2022-10-05T19:48:18.528Z,2
2022-10-05T19:54:41.848Z,1.3
2022-10-05T20:01:01.519Z,1.3
2022-10-05T20:07:24.872Z,0.3
2022-10-05T20:13:44.522Z,0.3
2022-10-05T20:20:07.507Z,2
2022-10-05T20:26:27.538Z,2
2022-10-05T20:32:50.514Z,1.6
2022-10-05T20:39:10.615Z,1.6
2022-10-05T20:45:33.511Z,0.9
2022-10-05T20:51:53.546Z,0.9
2022-10-05T20:58:16.492Z,0.8
2022-10-05T21:04:42.847Z,0.8
2022-10-05T21:10:59.531Z,1
2022-10-05T21:17:19.501Z,1
2022-10-05T21:23:42.516Z,0.7
2022-10-05T21:30:02.580Z,0.7
2022-10-05T21:36:25.480Z,0.8
2022-10-05T21:42:45.530Z,0.8
2022-10-05T21:49:08.462Z,2.1
2022-10-05T21:55:28.507Z,2.1
2022-10-05T22:01:51.547Z,0.9
2022-10-05T22:24:48.493Z,2.2
2022-10-05T22:31:08.556Z,2.2
2022-10-05T22:37:31.495Z,2.2
2022-10-05T22:43:51.517Z,2.2
2022-10-05T22:50:14.572Z,0.8
2022-10-05T22:56:34.506Z,0.8
2022-10-05T23:02:57.614Z,2.2
2022-10-05T23:09:17.597Z,2.2
2022-10-05T23:15:40.585Z,1.5
2022-10-05T23:22:00.533Z,1.5
2022-10-05T23:28:23.527Z,0.2
2022-10-05T23:34:43.588Z,0.2
2022-10-05T23:41:06.631Z,0.2
2022-10-05T23:47:26.551Z,0.2
2022-10-05T23:53:49.609Z,0.6
